Terminal Aerodrome Forecast
Issued by NWS

Home | Current Version | Previous Version | Graphics & Text | Print | Product List | Glossary On
Versions: 1 2 3 4 5 6 7 8 9 10 11 12 13 14 15 16 17 18 19 20 21 22
282
FTUS43 KMPX 260806 AAA
TAFRNH
TAF AMD
KRNH 260806Z 2608/2706 16004KT 4SM BR BKN200
     FM261200 22009KT P6SM FEW200
     FM270000 VRB03KT P6SM SCT050 OVC100=

USA.gov is the U.S. government's official web portal to all federal, state and local government web resources and services.